sensor_id;sensor_type;location;lat;lon;timestamp;pressure;altitude;pressure_sealevel;temperature;humidity
20909;BME280;10614;53.198;6.570;2023-12-07T08:42:48;102002.91;;;1.81;100.00
20909;BME280;10614;53.198;6.570;2023-12-07T08:44:52;101982.81;;;1.67;100.00
20909;BME280;10614;53.198;6.570;2023-12-07T08:46:54;102009.75;;;1.76;100.00
20909;BME280;10614;53.198;6.570;2023-12-07T08:48:57;101982.66;;;1.58;100.00
20909;BME280;10614;53.198;6.570;2023-12-07T08:51:01;102010.56;;;1.72;100.00
20909;BME280;10614;53.198;6.570;2023-12-07T08:53:04;102012.25;;;1.69;100.00
20909;BME280;10614;53.198;6.570;2023-12-07T08:55:07;102009.63;;;1.66;100.00
20909;BME280;10614;53.198;6.570;2023-12-07T08:57:10;101977.31;;;1.47;100.00
20909;BME280;10614;53.198;6.570;2023-12-07T08:59:18;101999.97;;;1.58;100.00
20909;BME280;10614;53.198;6.570;2023-12-07T09:01:20;101994.66;;;1.52;100.00
20909;BME280;10614;53.198;6.570;2023-12-07T09:03:22;101998.13;;;1.52;100.00
20909;BME280;10614;53.198;6.570;2023-12-07T09:05:30;102010.28;;;1.53;100.00
20909;BME280;10614;53.198;6.570;2023-12-07T09:07:36;102004.94;;;1.44;100.00
20909;BME280;10614;53.198;6.570;2023-12-07T09:09:38;102010.22;;;1.52;100.00
20909;BME280;10614;53.198;6.570;2023-12-07T09:11:47;101999.69;;;1.42;100.00
20909;BME280;10614;53.198;6.570;2023-12-07T09:13:51;102011.97;;;1.51;100.00
20909;BME280;10614;53.198;6.570;2023-12-07T09:22:40;102014.50;;;1.48;100.00
20909;BME280;10614;53.198;6.570;2023-12-07T09:24:42;102019.72;;;1.48;100.00
20909;BME280;10614;53.198;6.570;2023-12-07T09:26:44;102007.41;;;1.36;100.00
20909;BME280;10614;53.198;6.570;2023-12-07T09:28:50;102012.78;;;1.48;100.00
20909;BME280;10614;53.198;6.570;2023-12-07T09:30:55;102006.63;;;1.42;100.00
20909;BME280;10614;53.198;6.570;2023-12-07T09:33:00;102004.06;;;1.43;100.00
20909;BME280;10614;53.198;6.570;2023-12-07T09:35:09;102016.28;;;1.52;100.00
20909;BME280;10614;53.198;6.570;2023-12-07T09:37:15;101996.22;;;1.40;100.00
20909;BME280;10614;53.198;6.570;2023-12-07T09:39:19;102017.16;;;1.51;100.00
20909;BME280;10614;53.198;6.570;2023-12-07T09:41:26;102003.97;;;1.39;100.00
20909;BME280;10614;53.198;6.570;2023-12-07T09:43:38;102014.44;;;1.45;100.00
20909;BME280;10614;53.198;6.570;2023-12-07T09:45:44;101967.31;;;1.19;100.00
20909;BME280;10614;53.198;6.570;2023-12-07T09:47:59;101978.56;;;1.19;100.00
20909;BME280;10614;53.198;6.570;2023-12-07T09:50:02;102026.69;;;1.54;100.00
20909;BME280;10614;53.198;6.570;2023-12-07T09:52:05;102014.44;;;1.43;100.00
20909;BME280;10614;53.198;6.570;2023-12-07T09:54:11;102025.88;;;1.56;100.00
20909;BME280;10614;53.198;6.570;2023-12-07T09:56:15;102022.38;;;1.54;100.00
20909;BME280;10614;53.198;6.570;2023-12-07T09:58:20;102012.66;;;1.41;100.00
20909;BME280;10614;53.198;6.570;2023-12-07T10:00:22;102016.28;;;1.51;100.00
20909;BME280;10614;53.198;6.570;2023-12-07T10:02:24;102010.22;;;1.52;100.00
20909;BME280;10614;53.198;6.570;2023-12-07T10:04:29;102005.91;;;1.52;100.00
20909;BME280;10614;53.198;6.570;2023-12-07T10:06:42;101977.97;;;1.36;100.00
20909;BME280;10614;53.198;6.570;2023-12-07T10:08:45;102010.28;;;1.53;100.00
20909;BME280;10614;53.198;6.570;2023-12-07T10:11:01;102003.38;;;1.55;100.00
20909;BME280;10614;53.198;6.570;2023-12-07T10:13:05;102004.28;;;1.57;100.00
20909;BME280;10614;53.198;6.570;2023-12-07T10:15:11;101991.25;;;1.54;100.00
20909;BME280;10614;53.198;6.570;2023-12-07T10:17:16;101956.38;;;1.37;100.00
20909;BME280;10614;53.198;6.570;2023-12-07T10:19:20;101980.06;;;1.58;100.00
20909;BME280;10614;53.198;6.570;2023-12-07T10:21:31;101981.88;;;1.62;100.00
20909;BME280;10614;53.198;6.570;2023-12-07T10:23:37;101978.38;;;1.60;100.00
20909;BME280;10614;53.198;6.570;2023-12-07T10:25:46;101982.84;;;1.69;100.00
20909;BME280;10614;53.198;6.570;2023-12-07T10:27:47;101961.94;;;1.61;100.00
20909;BME280;10614;53.198;6.570;2023-12-07T10:29:55;101992.53;;;1.82;100.00
20909;BME280;10614;53.198;6.570;2023-12-07T10:32:02;101963.84;;;1.73;100.00
20909;BME280;10614;53.198;6.570;2023-12-07T10:34:06;101979.69;;;1.90;100.00
20909;BME280;10614;53.198;6.570;2023-12-07T10:36:10;101985.00;;;1.99;100.00
20909;BME280;10614;53.198;6.570;2023-12-07T10:38:13;101981.56;;;2.03;100.00
20909;BME280;10614;53.198;6.570;2023-12-07T10:40:14;101983.38;;;2.10;100.00
20909;BME280;10614;53.198;6.570;2023-12-07T10:42:24;101980.03;;;2.18;100.00
20909;BME280;10614;53.198;6.570;2023-12-07T10:44:35;101952.19;;;2.07;100.00
20909;BME280;10614;53.198;6.570;2023-12-07T10:46:49;101954.03;;;2.16;100.00
20909;BME280;10614;53.198;6.570;2023-12-07T10:48:59;101976.81;;;2.37;100.00
20909;BME280;10614;53.198;6.570;2023-12-07T10:51:05;101956.81;;;2.31;100.00
20909;BME280;10614;53.198;6.570;2023-12-07T10:53:17;101964.88;;;2.54;100.00
20909;BME280;10614;53.198;6.570;2023-12-07T10:55:22;101949.28;;;2.54;100.00
20909;BME280;10614;53.198;6.570;2023-12-07T10:57:30;101937.16;;;2.53;100.00
20909;BME280;10614;53.198;6.570;2023-12-07T10:59:35;101935.50;;;2.62;100.00
20909;BME280;10614;53.198;6.570;2023-12-07T11:01:40;101952.16;;;2.79;100.00
20909;BME280;10614;53.198;6.570;2023-12-07T11:03:44;101962.66;;;2.88;100.00
20909;BME280;10614;53.198;6.570;2023-12-07T11:05:48;101926.19;;;2.84;100.00
20909;BME280;10614;53.198;6.570;2023-12-07T11:07:55;101953.28;;;3.10;100.00
20909;BME280;10614;53.198;6.570;2023-12-07T11:10:13;101936.81;;;3.10;100.00
20909;BME280;10614;53.198;6.570;2023-12-07T11:12:23;101938.66;;;3.25;100.00
20909;BME280;10614;53.198;6.570;2023-12-07T11:14:33;101946.59;;;3.40;100.00
20909;BME280;10614;53.198;6.570;2023-12-07T11:16:37;101911.81;;;3.29;100.00
20909;BME280;10614;53.198;6.570;2023-12-07T11:18:40;101944.91;;;3.48;100.00
20909;BME280;10614;53.198;6.570;2023-12-07T11:20:50;101943.22;;;3.52;100.00
20909;BME280;10614;53.198;6.570;2023-12-07T11:22:56;101932.84;;;3.63;100.00
20909;BME280;10614;53.198;6.570;2023-12-07T11:25:00;101923.34;;;3.63;100.00
20909;BME280;10614;53.198;6.570;2023-12-07T11:27:03;101940.78;;;3.83;100.00
20909;BME280;10614;53.198;6.570;2023-12-07T11:29:19;101946.06;;;3.93;100.00
20909;BME280;10614;53.198;6.570;2023-12-07T11:31:37;101917.34;;;3.86;100.00
20909;BME280;10614;53.198;6.570;2023-12-07T11:33:42;101914.81;;;3.93;100.00
20909;BME280;10614;53.198;6.570;2023-12-07T11:36:06;101920.97;;;4.08;100.00
20909;BME280;10614;53.198;6.570;2023-12-07T11:38:08;101894.84;;;3.98;100.00
20909;BME280;10614;53.198;6.570;2023-12-07T11:40:12;101911.41;;;4.13;100.00
20909;BME280;10614;53.198;6.570;2023-12-07T11:42:16;101915.81;;;4.26;100.00
20909;BME280;10614;53.198;6.570;2023-12-07T11:57:44;101901.97;;;4.42;100.00
20909;BME280;10614;53.198;6.570;2023-12-07T11:59:47;101911.53;;;4.53;100.00
20909;BME280;10614;53.198;6.570;2023-12-07T12:01:51;101912.41;;;4.59;100.00
20909;BME280;10614;53.198;6.570;2023-12-07T12:03:53;101905.47;;;4.64;100.00
20909;BME280;10614;53.198;6.570;2023-12-07T12:05:56;101901.97;;;4.65;100.00
20909;BME280;10614;53.198;6.570;2023-12-07T12:07:56;101907.22;;;4.73;100.00
20909;BME280;10614;53.198;6.570;2023-12-07T12:09:58;101895.94;;;4.76;100.00
20909;BME280;10614;53.198;6.570;2023-12-07T12:12:07;101879.38;;;4.72;100.00
20909;BME280;10614;53.198;6.570;2023-12-07T12:14:09;101900.25;;;4.86;100.00
20909;BME280;10614;53.198;6.570;2023-12-07T12:16:12;101891.59;;;4.82;100.00
20909;BME280;10614;53.198;6.570;2023-12-07T12:18:14;101877.66;;;4.67;100.00
20909;BME280;10614;53.198;6.570;2023-12-07T12:20:17;101895.03;;;4.64;100.00
20909;BME280;10614;53.198;6.570;2023-12-07T12:22:19;101868.91;;;4.40;100.00
20909;BME280;10614;53.198;6.570;2023-12-07T12:24:21;101882.81;;;4.37;100.00
20909;BME280;10614;53.198;6.570;2023-12-07T12:26:26;101887.16;;;4.29;100.00
20909;BME280;10614;53.198;6.570;2023-12-07T12:28:28;101880.13;;;4.14;100.00
20909;BME280;10614;53.198;6.570;2023-12-07T12:30:32;101860.91;;;3.83;100.00
20909;BME280;10614;53.198;6.570;2023-12-07T12:32:44;101872.13;;;3.64;100.00
20909;BME280;10614;53.198;6.570;2023-12-07T12:34:51;101889.47;;;3.62;100.00
20909;BME280;10614;53.198;6.570;2023-12-07T12:36:57;101848.47;;;3.25;100.00
20909;BME280;10614;53.198;6.570;2023-12-07T12:38:59;101881.44;;;3.29;100.00
20909;BME280;10614;53.198;6.570;2023-12-07T12:41:03;101878.88;;;3.32;100.00
20909;BME280;10614;53.198;6.570;2023-12-07T12:43:07;101874.53;;;3.34;100.00
20909;BME280;10614;53.198;6.570;2023-12-07T12:45:09;101846.72;;;3.23;100.00
20909;BME280;10614;53.198;6.570;2023-12-07T12:47:21;101865.00;;;3.30;100.00
20909;BME280;10614;53.198;6.570;2023-12-07T12:49:34;101869.34;;;3.33;100.00
20909;BME280;10614;53.198;6.570;2023-12-07T12:51:39;101852.81;;;3.26;100.00
20909;BME280;10614;53.198;6.570;2023-12-07T12:53:46;101867.59;;;3.32;100.00
20909;BME280;10614;53.198;6.570;2023-12-07T12:55:50;101832.84;;;3.22;100.00
20909;BME280;10614;53.198;6.570;2023-12-07T12:57:56;101826.69;;;3.11;100.00
20909;BME280;10614;53.198;6.570;2023-12-07T12:59:57;101838.91;;;3.21;100.00
20909;BME280;10614;53.198;6.570;2023-12-07T13:01:59;101823.19;;;3.09;100.00
20909;BME280;10614;53.198;6.570;2023-12-07T13:04:02;101837.19;;;3.22;100.00
20909;BME280;10614;53.198;6.570;2023-12-07T13:06:10;101813.66;;;3.05;100.00
20909;BME280;10614;53.198;6.570;2023-12-07T13:08:11;101804.09;;;3.04;100.00
20909;BME280;10614;53.198;6.570;2023-12-07T13:10:14;101836.28;;;3.16;100.00
20909;BME280;10614;53.198;6.570;2023-12-07T13:12:15;101804.06;;;2.96;100.00
20909;BME280;10614;53.198;6.570;2023-12-07T14:20:25;101784.09;;;1.94;100.00
20909;BME280;10614;53.198;6.570;2023-12-07T14:28:59;101830.94;;;2.03;100.00
20909;BME280;10614;53.198;6.570;2023-12-07T14:31:05;101800.44;;;1.84;100.00
20909;BME280;10614;53.198;6.570;2023-12-07T14:33:18;101828.34;;;2.02;100.00
20909;BME280;10614;53.198;6.570;2023-12-07T14:35:21;101827.44;;;1.98;100.00
20909;BME280;10614;53.198;6.570;2023-12-07T14:37:25;101792.63;;;1.82;100.00
20909;BME280;10614;53.198;6.570;2023-12-07T14:39:27;101812.69;;;1.96;100.00
20909;BME280;10614;53.198;6.570;2023-12-07T14:41:31;101808.38;;;1.95;100.00
20909;BME280;10614;53.198;6.570;2023-12-07T14:43:32;101807.47;;;1.93;100.00
20909;BME280;10614;53.198;6.570;2023-12-07T14:45:35;101818.72;;;1.93;100.00
20909;BME280;10614;53.198;6.570;2023-12-07T14:47:39;101803.16;;;1.93;100.00
20909;BME280;10614;53.198;6.570;2023-12-07T14:49:42;101797.06;;;1.91;100.00
20909;BME280;10614;53.198;6.570;2023-12-07T14:51:44;101791.84;;;1.88;100.00
20909;BME280;10614;53.198;6.570;2023-12-07T14:53:47;101788.31;;;1.84;100.00
20909;BME280;10614;53.198;6.570;2023-12-07T14:55:49;101799.59;;;1.86;100.00
20909;BME280;10614;53.198;6.570;2023-12-07T14:57:52;101798.78;;;1.90;100.00
20909;BME280;10614;53.198;6.570;2023-12-07T14:59:54;101811.75;;;1.89;100.00
20909;BME280;10614;53.198;6.570;2023-12-07T15:01:58;101806.53;;;1.86;100.00
20909;BME280;10614;53.198;6.570;2023-12-07T15:04:01;101805.72;;;1.90;100.00
20909;BME280;10614;53.198;6.570;2023-12-07T15:06:03;101805.69;;;1.88;100.00
20909;BME280;10614;53.198;6.570;2023-12-07T15:08:06;101803.94;;;1.89;100.00
20909;BME280;10614;53.198;6.570;2023-12-07T15:10:09;101804.84;;;1.91;100.00
20909;BME280;10614;53.198;6.570;2023-12-07T15:12:12;101790.97;;;1.89;100.00
20909;BME280;10614;53.198;6.570;2023-12-07T15:14:14;101770.00;;;1.71;100.00
20909;BME280;10614;53.198;6.570;2023-12-07T15:16:17;101786.53;;;1.79;100.00
20909;BME280;10614;53.198;6.570;2023-12-07T15:18:22;101780.47;;;1.80;100.00
20909;BME280;10614;53.198;6.570;2023-12-07T15:20:25;101770.09;;;1.80;100.00
20909;BME280;10614;53.198;6.570;2023-12-07T15:22:25;101774.44;;;1.82;100.00
20909;BME280;10614;53.198;6.570;2023-12-07T15:24:28;101768.34;;;1.76;100.00
20909;BME280;10614;53.198;6.570;2023-12-07T15:26:34;101769.22;;;1.76;100.00
20909;BME280;10614;53.198;6.570;2023-12-07T15:28:37;101764.00;;;1.78;100.00
20909;BME280;10614;53.198;6.570;2023-12-07T15:30:41;101743.16;;;1.68;100.00
20909;BME280;10614;53.198;6.570;2023-12-07T15:32:47;101751.91;;;1.77;100.00
20909;BME280;10614;53.198;6.570;2023-12-07T16:45:17;101652.19;;;1.56;100.00
20909;BME280;10614;53.198;6.570;2023-12-07T16:47:19;101652.25;;;1.59;100.00
20909;BME280;10614;53.198;6.570;2023-12-07T16:49:19;101640.97;;;1.57;100.00
20909;BME280;10614;53.198;6.570;2023-12-07T16:51:22;101645.31;;;1.58;100.00
20909;BME280;10614;53.198;6.570;2023-12-07T16:53:23;101630.56;;;1.53;100.00
20909;BME280;10614;53.198;6.570;2023-12-07T16:55:25;101617.47;;;1.42;100.00
20909;BME280;10614;53.198;6.570;2023-12-07T16:57:28;101640.09;;;1.57;100.00
20909;BME280;10614;53.198;6.570;2023-12-07T16:59:29;101631.41;;;1.53;100.00
20909;BME280;10614;53.198;6.570;2023-12-07T17:01:32;101636.59;;;1.52;100.00
20909;BME280;10614;53.198;6.570;2023-12-07T17:03:34;101642.59;;;1.46;100.00
20909;BME280;10614;53.198;6.570;2023-12-07T17:05:39;101647.81;;;1.47;100.00
20909;BME280;10614;53.198;6.570;2023-12-07T17:07:41;101628.72;;;1.44;100.00
20909;BME280;10614;53.198;6.570;2023-12-07T17:09:43;101637.44;;;1.47;100.00
20909;BME280;10614;53.198;6.570;2023-12-07T17:11:44;101637.44;;;1.49;100.00
20909;BME280;10614;53.198;6.570;2023-12-07T17:13:46;101641.75;;;1.48;100.00
20909;BME280;10614;53.198;6.570;2023-12-07T17:15:48;101627.00;;;1.43;100.00
20909;BME280;10614;53.198;6.570;2023-12-07T17:17:52;101632.19;;;1.43;100.00
20909;BME280;10614;53.198;6.570;2023-12-07T17:19:54;101635.66;;;1.43;100.00
20909;BME280;10614;53.198;6.570;2023-12-07T17:21:57;101642.53;;;1.41;100.00
20909;BME280;10614;53.198;6.570;2023-12-07T17:23:58;101635.59;;;1.40;100.00
20909;BME280;10614;53.198;6.570;2023-12-07T17:26:00;101615.63;;;1.33;100.00
20909;BME280;10614;53.198;6.570;2023-12-07T17:28:02;101614.78;;;1.31;100.00
20909;BME280;10614;53.198;6.570;2023-12-07T17:30:06;101632.09;;;1.34;100.00
20909;BME280;10614;53.198;6.570;2023-12-07T17:32:08;101598.16;;;1.14;100.00
20909;BME280;10614;53.198;6.570;2023-12-07T17:34:11;101630.34;;;1.31;100.00
20909;BME280;10614;53.198;6.570;2023-12-07T17:36:12;101627.75;;;1.31;100.00
20909;BME280;10614;53.198;6.570;2023-12-07T17:38:14;101632.88;;;1.28;100.00
20909;BME280;10614;53.198;6.570;2023-12-07T17:40:16;101619.88;;;1.23;100.00
20909;BME280;10614;53.198;6.570;2023-12-07T17:42:18;101609.47;;;1.23;100.00
20909;BME280;10614;53.198;6.570;2023-12-07T17:44:22;101615.59;;;1.29;100.00
20909;BME280;10614;53.198;6.570;2023-12-07T17:46:24;101593.88;;;1.17;100.00
20909;BME280;10614;53.198;6.570;2023-12-07T17:48:26;101617.34;;;1.30;100.00
20909;BME280;10614;53.198;6.570;2023-12-07T17:50:29;101619.06;;;1.29;100.00
20909;BME280;10614;53.198;6.570;2023-12-07T17:52:31;101615.59;;;1.29;100.00
20909;BME280;10614;53.198;6.570;2023-12-07T18:00:57;101608.66;;;1.24;100.00
20909;BME280;10614;53.198;6.570;2023-12-07T18:05:06;101605.13;;;1.21;100.00
20909;BME280;10614;53.198;6.570;2023-12-07T18:07:09;101601.69;;;1.20;100.00
20909;BME280;10614;53.198;6.570;2023-12-07T18:09:11;101586.84;;;1.05;100.00
20909;BME280;10614;53.198;6.570;2023-12-07T18:11:18;101583.44;;;1.11;100.00
20909;BME280;10614;53.198;6.570;2023-12-07T18:13:23;101579.13;;;1.13;100.00
20909;BME280;10614;53.198;6.570;2023-12-07T18:15:25;101555.69;;;1.01;100.00
20909;BME280;10614;53.198;6.570;2023-12-07T18:17:27;101580.91;;;1.17;100.00
20909;BME280;10614;53.198;6.570;2023-12-07T18:19:28;101569.63;;;1.14;100.00
20909;BME280;10614;53.198;6.570;2023-12-07T18:21:30;101566.19;;;1.15;100.00
20909;BME280;10614;53.198;6.570;2023-12-07T18:23:35;101554.03;;;1.09;100.00
20909;BME280;10614;53.198;6.570;2023-12-07T18:25:36;101561.78;;;1.09;100.00
20909;BME280;10614;53.198;6.570;2023-12-07T18:27:38;101559.19;;;1.06;100.00
20909;BME280;10614;53.198;6.570;2023-12-07T18:29:40;101553.94;;;1.03;100.00
20909;BME280;10614;53.198;6.570;2023-12-07T18:31:43;101546.16;;;1.03;100.00
20909;BME280;10614;53.198;6.570;2023-12-07T18:33:46;101515.72;;;0.82;100.00
20909;BME280;10614;53.198;6.570;2023-12-07T18:35:49;101540.91;;;0.94;100.00
20909;BME280;10614;53.198;6.570;2023-12-07T18:37:51;101550.47;;;0.99;100.00
20909;BME280;10614;53.198;6.570;2023-12-07T18:39:54;101552.19;;;1.00;100.00
20909;BME280;10614;53.198;6.570;2023-12-07T18:41:56;101557.38;;;1.00;100.00
20909;BME280;10614;53.198;6.570;2023-12-07T18:43:57;101555.69;;;1.01;100.00
20909;BME280;10614;53.198;6.570;2023-12-07T18:46:00;101546.16;;;1.00;100.00
20909;BME280;10614;53.198;6.570;2023-12-07T18:48:08;101540.97;;;1.00;100.00
20909;BME280;10614;53.198;6.570;2023-12-07T18:50:09;101546.16;;;1.03;100.00
20909;BME280;10614;53.198;6.570;2023-12-07T18:52:12;101540.09;;;0.99;100.00
20909;BME280;10614;53.198;6.570;2023-12-07T18:54:14;101548.78;;;1.04;100.00
20909;BME280;10614;53.198;6.570;2023-12-07T18:56:17;101519.22;;;0.89;100.00
20909;BME280;10614;53.198;6.570;2023-12-07T18:58:19;101545.31;;;1.01;100.00
20909;BME280;10614;53.198;6.570;2023-12-07T19:00:22;101540.06;;;0.98;100.00
20909;BME280;10614;53.198;6.570;2023-12-07T19:02:25;101543.56;;;1.03;100.00
20909;BME280;10614;53.198;6.570;2023-12-07T19:04:26;101544.44;;;1.02;100.00
20909;BME280;10614;53.198;6.570;2023-12-07T19:06:28;101516.63;;;0.86;100.00
20909;BME280;10614;53.198;6.570;2023-12-07T19:08:31;101497.50;;;0.73;100.00
20909;BME280;10614;53.198;6.570;2023-12-07T19:12:47;101508.78;;;0.78;100.00
20909;BME280;10614;53.198;6.570;2023-12-07T19:14:51;101480.09;;;0.62;100.00
20909;BME280;10614;53.198;6.570;2023-12-07T19:16:52;101508.78;;;0.78;100.00
20909;BME280;10614;53.198;6.570;2023-12-07T19:18:54;101511.38;;;0.81;100.00
20909;BME280;10614;53.198;6.570;2023-12-07T19:20:56;101507.91;;;0.77;100.00
20909;BME280;10614;53.198;6.570;2023-12-07T19:22:58;101508.72;;;0.75;100.00
20909;BME280;10614;53.198;6.570;2023-12-07T19:24:59;101498.31;;;0.72;100.00
20909;BME280;10614;53.198;6.570;2023-12-07T19:27:01;101505.28;;;0.76;100.00
20909;BME280;10614;53.198;6.570;2023-12-07T19:29:04;101494.84;;;0.70;100.00
20909;BME280;10614;53.198;6.570;2023-12-07T19:31:06;101497.50;;;0.73;100.00
20909;BME280;10614;53.198;6.570;2023-12-07T19:33:08;101496.66;;;0.77;100.00
20909;BME280;10614;53.198;6.570;2023-12-07T19:35:14;101494.06;;;0.77;100.00
20909;BME280;10614;53.198;6.570;2023-12-07T19:37:31;101500.94;;;0.75;100.00
20909;BME280;10614;53.198;6.570;2023-12-07T19:39:36;101491.38;;;0.68;100.00
20909;BME280;10614;53.198;6.570;2023-12-07T19:41:39;101497.47;;;0.71;100.00
20909;BME280;10614;53.198;6.570;2023-12-07T19:43:42;101496.59;;;0.72;100.00
20909;BME280;10614;53.198;6.570;2023-12-07T19:45:45;101501.84;;;0.75;100.00
20909;BME280;10614;53.198;6.570;2023-12-07T19:47:47;101488.84;;;0.74;100.00
20909;BME280;10614;53.198;6.570;2023-12-07T19:49:49;101490.56;;;0.73;100.00
20909;BME280;10614;53.198;6.570;2023-12-07T19:51:51;101487.97;;;0.75;100.00
20909;BME280;10614;53.198;6.570;2023-12-07T19:53:51;101480.16;;;0.69;100.00
20909;BME280;10614;53.198;6.570;2023-12-07T19:55:53;101480.16;;;0.70;100.00
20909;BME280;10614;53.198;6.570;2023-12-07T19:57:55;101470.59;;;0.65;100.00
20909;BME280;10614;53.198;6.570;2023-12-07T19:59:59;101479.31;;;0.68;100.00
20909;BME280;10614;53.198;6.570;2023-12-07T20:02:01;101441.06;;;0.47;100.00
20909;BME280;10614;53.198;6.570;2023-12-07T20:04:03;101466.34;;;0.68;100.00
20909;BME280;10614;53.198;6.570;2023-12-07T20:06:05;101453.31;;;0.62;100.00
20909;BME280;10614;53.198;6.570;2023-12-07T20:08:07;101460.28;;;0.68;100.00
20909;BME280;10614;53.198;6.570;2023-12-07T20:10:09;101456.81;;;0.66;100.00
20909;BME280;10614;53.198;6.570;2023-12-07T20:12:11;101455.94;;;0.67;100.00
20909;BME280;10614;53.198;6.570;2023-12-07T20:14:13;101448.22;;;0.68;100.00
20909;BME280;10614;53.198;6.570;2023-12-07T20:16:15;101434.28;;;0.60;100.00
20909;BME280;10614;53.198;6.570;2023-12-07T20:18:18;101444.69;;;0.63;100.00
20909;BME280;10614;53.198;6.570;2023-12-07T20:20:20;101438.63;;;0.61;100.00
20909;BME280;10614;53.198;6.570;2023-12-07T20:22:21;101435.19;;;0.65;100.00
20909;BME280;10614;53.198;6.570;2023-12-07T20:24:25;101425.69;;;0.62;100.00
20909;BME280;10614;53.198;6.570;2023-12-07T20:26:27;101430.84;;;0.62;100.00
20909;BME280;10614;53.198;6.570;2023-12-07T20:28:29;101430.03;;;0.63;100.00
20909;BME280;10614;53.198;6.570;2023-12-07T20:30:31;101423.94;;;0.63;100.00
20909;BME280;10614;53.198;6.570;2023-12-07T20:32:33;101425.69;;;0.64;100.00
20909;BME280;10614;53.198;6.570;2023-12-07T20:34:37;101417.94;;;0.64;100.00
20909;BME280;10614;53.198;6.570;2023-12-07T20:36:39;101413.59;;;0.65;100.00
20909;BME280;10614;53.198;6.570;2023-12-07T20:38:42;101417.06;;;0.65;100.00
20909;BME280;10614;53.198;6.570;2023-12-07T20:40:44;101412.72;;;0.61;100.00
20909;BME280;10614;53.198;6.570;2023-12-07T20:42:48;101405.00;;;0.66;100.00
20909;BME280;10614;53.198;6.570;2023-12-07T20:44:50;101386.78;;;0.58;100.00
20909;BME280;10614;53.198;6.570;2023-12-07T20:46:52;101387.69;;;0.63;100.00
20909;BME280;10614;53.198;6.570;2023-12-07T20:48:54;101388.56;;;0.65;100.00
20909;BME280;10614;53.198;6.570;2023-12-07T20:50:57;101383.38;;;0.63;100.00
20909;BME280;10614;53.198;6.570;2023-12-07T20:52:59;101384.28;;;0.66;100.00
20909;BME280;10614;53.198;6.570;2023-12-07T20:55:04;101372.97;;;0.60;100.00
20909;BME280;10614;53.198;6.570;2023-12-07T20:57:06;101375.59;;;0.65;100.00
20909;BME280;10614;53.198;6.570;2023-12-07T20:59:08;101376.47;;;0.64;100.00
20909;BME280;10614;53.198;6.570;2023-12-07T21:01:11;101325.22;;;0.32;100.00
20909;BME280;10614;53.198;6.570;2023-12-07T21:03:13;101341.78;;;0.48;100.00
20909;BME280;10614;53.198;6.570;2023-12-07T21:05:15;101353.97;;;0.57;100.00
20909;BME280;10614;53.198;6.570;2023-12-07T21:07:19;101335.69;;;0.43;100.00
20909;BME280;10614;53.198;6.570;2023-12-07T21:09:23;101369.53;;;0.60;100.00
20909;BME280;10614;53.198;6.570;2023-12-07T21:11:27;101348.72;;;0.49;100.00
20909;BME280;10614;53.198;6.570;2023-12-07T21:13:28;101347.03;;;0.54;100.00
20909;BME280;10614;53.198;6.570;2023-12-07T21:15:30;101354.88;;;0.63;100.00
20909;BME280;10614;53.198;6.570;2023-12-07T21:17:32;101344.47;;;0.59;100.00
20909;BME280;10614;53.198;6.570;2023-12-07T21:19:34;101350.56;;;0.64;100.00
20909;BME280;10614;53.198;6.570;2023-12-07T21:21:36;101297.63;;;0.34;100.00
20909;BME280;10614;53.198;6.570;2023-12-07T21:23:39;101335.84;;;0.63;100.00
20909;BME280;10614;53.198;6.570;2023-12-07T21:25:41;101342.81;;;0.66;100.00
20909;BME280;10614;53.198;6.570;2023-12-07T21:27:43;101327.19;;;0.56;100.00
20909;BME280;10614;53.198;6.570;2023-12-07T21:29:45;101327.25;;;0.64;100.00
20909;BME280;10614;53.198;6.570;2023-12-07T21:31:47;101330.72;;;0.66;100.00
20909;BME280;10614;53.198;6.570;2023-12-07T21:33:49;101331.56;;;0.65;100.00
20909;BME280;10614;53.198;6.570;2023-12-07T21:35:50;101307.34;;;0.57;100.00
20909;BME280;10614;53.198;6.570;2023-12-07T21:37:52;101316.91;;;0.66;100.00
20909;BME280;10614;53.198;6.570;2023-12-07T21:39:55;101317.78;;;0.66;100.00
20909;BME280;10614;53.198;6.570;2023-12-07T21:41:57;101309.13;;;0.64;100.00
20909;BME280;10614;53.198;6.570;2023-12-07T21:44:00;101299.63;;;0.66;100.00
20909;BME280;10614;53.198;6.570;2023-12-07T21:46:02;101303.13;;;0.68;100.00
20909;BME280;10614;53.198;6.570;2023-12-07T21:48:04;101281.47;;;0.61;100.00
20909;BME280;10614;53.198;6.570;2023-12-07T21:50:07;101293.59;;;0.67;100.00
20909;BME280;10614;53.198;6.570;2023-12-07T21:52:08;101290.16;;;0.68;100.00
20909;BME280;10614;53.198;6.570;2023-12-07T21:54:10;101276.28;;;0.65;100.00
20909;BME280;10614;53.198;6.570;2023-12-07T21:56:13;101291.91;;;0.71;100.00
20909;BME280;10614;53.198;6.570;2023-12-07T21:58:15;101286.66;;;0.68;100.00
20909;BME280;10614;53.198;6.570;2023-12-07T22:00:17;101276.34;;;0.69;100.00
20909;BME280;10614;53.198;6.570;2023-12-07T22:02:19;101278.03;;;0.67;100.00
20909;BME280;10614;53.198;6.570;2023-12-07T22:04:21;101272.00;;;0.67;100.00
20909;BME280;10614;53.198;6.570;2023-12-07T22:06:23;101263.31;;;0.63;100.00
20909;BME280;10614;53.198;6.570;2023-12-07T22:08:24;101271.94;;;0.60;100.00
20909;BME280;10614;53.198;6.570;2023-12-07T22:10:26;101284.09;;;0.68;100.00
20909;BME280;10614;53.198;6.570;2023-12-07T22:12:29;101286.66;;;0.68;100.00
20909;BME280;10614;53.198;6.570;2023-12-07T22:14:31;101275.47;;;0.69;100.00
20909;BME280;10614;53.198;6.570;2023-12-07T22:16:32;101258.16;;;0.68;100.00
20909;BME280;10614;53.198;6.570;2023-12-07T22:18:33;101253.88;;;0.70;100.00
20909;BME280;10614;53.198;6.570;2023-12-07T22:20:35;101258.19;;;0.72;100.00
20909;BME280;10614;53.198;6.570;2023-12-07T22:22:38;101259.09;;;0.73;100.00